Flight Track Log - Related Links

Times and Time Zones

All times are in EDT time to prevent confusion due to time zone crossing. See the UCA4838 flight status page for this flight to view local times or setup timezone preferences in your user account.

Time Position Orientation Groundspeed Altitude Reporting Facility
EDT Latitude Longitude Course Direction KTS MPH feet Rate Location/Type
Sat 09:34:53 AM 42.7589 -73.8058 325° Northwest 144 166 1,000  Level Boston Center
Sat 09:35:41 AM 42.7858 -73.8319 325° Northwest 162 186 2,000 1,266 Climbing Boston Center
Sat 09:36:42 AM 42.7767 -73.8939 259° West 192 221 3,300 1,377 Climbing Boston Center
Sat 09:37:43 AM 42.7283 -73.9297 209° Southwest 198 228 4,800 1,488 Climbing Boston Center
Sat 09:38:43 AM 42.6758 -73.9481 194° South 207 238 6,300 1,488 Climbing Boston Center
Sat 09:39:44 AM 42.6214 -73.9750 200° South 210 242 7,800 1,377 Climbing Boston Center
Sat 09:40:45 AM 42.5667 -74.0075 204° Southwest 211 243 9,100 1,091 Climbing Boston Center
Sat 09:41:45 AM 42.5122 -74.0342 200° South 218 251 10,000 446 Climbing Boston Center
Sat 09:42:46 AM 42.4469 -74.0747 205° Southwest 257 296 10,000  Level Boston Center
Sat 09:43:56 AM 42.3650 -74.1147 200° South 272 313 10,000  Level Boston Center
Sat 09:44:56 AM 42.2978 -74.1522 202° Southwest 272 313 10,000  Level Boston Center
Sat 09:45:56 AM 42.2306 -74.1869 201° Southwest 272 313 10,000  Level Boston Center
Sat 09:46:56 AM 42.1633 -74.2328 207° Southwest 272 313 10,000  Level Boston Center
Sat 09:47:56 AM 42.0958 -74.2700 202° Southwest 267 307 10,000  Level Boston Center
Sat 09:48:56 AM 42.0267 -74.3014 199° South 261 300 10,000  Level Boston Center
Sat 09:49:56 AM 41.9572 -74.3328 199° South 266 306 10,000 -400 Level Boston Center
Sat 09:50:56 AM 41.8881 -74.3672 200° South 271 312 9,200 -800 Descending Boston Center
Sat 09:51:56 AM 41.8144 -74.4039 200° South 277 319 8,400 -800 Descending Boston Center
Sat 09:52:56 AM 41.7408 -74.4350 198° South 277 319 7,600 -700 Descending Boston Center
Sat 09:53:56 AM 41.6694 -74.4717 201° Southwest 277 319 7,000 -300 Descending Boston Center
Sat 09:54:56 AM 41.6022 -74.5028 199° South 271 312 7,000  Level Boston Center
Sat 09:55:56 AM 41.5328 -74.5339 199° South 271 312 7,000 -500 Level Boston Center
Sat 09:56:56 AM 41.4592 -74.5647 197° South 271 312 6,000 -444 Descending Boston Center
Sat 09:58:11 AM 41.3667 -74.6000 196° South 263 303 6,000  Level New York TRACON
Sat 09:59:05 AM 41.3167 -74.6167 194° South 250 288 6,000  Level New York TRACON
Sat 10:00:05 AM 41.2500 -74.6167 180° South 244 281 6,000  Level New York TRACON
Sat 10:01:05 AM 41.1833 -74.6000 169° South 248 285 6,000  Level New York TRACON
Sat 10:02:05 AM 41.1000 -74.5833 171° South 248 285 6,000  Level New York TRACON
Sat 10:02:59 AM 41.0500 -74.5833 180° South 248 285 6,000  Level New York TRACON
Sat 10:03:59 AM 40.9833 -74.5667 169° South 249 287 6,000  Level New York TRACON
Sat 10:04:59 AM 40.9000 -74.5500 171° South 251 289 6,000  Level New York TRACON
Sat 10:05:59 AM 40.8333 -74.5500 180° South 250 288 6,000  Level New York TRACON
Sat 10:06:59 AM 40.7667 -74.5333 169° South 247 284 6,000 53 Level New York TRACON
Sat 10:07:53 AM 40.7000 -74.5167 169° South 250 288 6,100 -368 Climbing New York TRACON
Sat 10:08:53 AM 40.6333 -74.5000 169° South 259 298 5,300 -550 Descending New York TRACON
Sat 10:09:53 AM 40.5833 -74.4500 143° Southeast 243 280 5,000 -526 Descending New York TRACON
Sat 10:10:47 AM 40.5500 -74.3833 123° Southeast 229 264 4,300 -1,053 Descending New York TRACON
Sat 10:11:47 AM 40.5333 -74.3167 108° East 200 230 3,000 -1,150 Descending New York TRACON
Sat 10:12:47 AM 40.5500 -74.2667 66° East 183 211 2,000 -550 Descending New York TRACON
Sat 10:13:47 AM 40.6000 -74.2333 27° Northeast 178 205 1,900 -450 Descending New York TRACON
Sat 10:14:47 AM 40.6333 -74.2000 37° Northeast 148 170 1,100 -750 Descending New York TRACON
Sat 10:15:47 AM 40.6667 -74.1833 21° North 122 140 400 -700 Descending New York TRACON
Sat 10:17:00 AM 40.6833 -74.1667 78° East  Level FlightAware Approximate

Login

Don't have an account? Register now (free) for customized features, flight alerts, and more!